sensor_id;sensor_type;location;lat;lon;timestamp;P1;durP1;ratioP1;P2;durP2;ratioP2
64826;SDS011;51265;53.972;12.286;2022-12-29T00:00:04;12.27;;;6.32;;
64826;SDS011;51265;53.972;12.286;2022-12-29T00:02:38;11.35;;;4.93;;
64826;SDS011;51265;53.972;12.286;2022-12-29T00:05:05;8.40;;;5.35;;
64826;SDS011;51265;53.972;12.286;2022-12-29T00:07:31;10.23;;;5.65;;
64826;SDS011;51265;53.972;12.286;2022-12-29T00:09:58;10.93;;;5.97;;
64826;SDS011;51265;53.972;12.286;2022-12-29T00:12:24;11.57;;;6.70;;
64826;SDS011;51265;53.972;12.286;2022-12-29T00:14:51;11.80;;;5.80;;
64826;SDS011;51265;53.972;12.286;2022-12-29T00:17:36;9.60;;;5.57;;
64826;SDS011;51265;53.972;12.286;2022-12-29T00:20:02;10.38;;;6.07;;
64826;SDS011;51265;53.972;12.286;2022-12-29T00:22:47;13.00;;;6.28;;
64826;SDS011;51265;53.972;12.286;2022-12-29T00:25:32;11.43;;;5.88;;
64826;SDS011;51265;53.972;12.286;2022-12-29T00:28:17;9.27;;;6.53;;
64826;SDS011;51265;53.972;12.286;2022-12-29T00:31:03;10.20;;;5.97;;
64826;SDS011;51265;53.972;12.286;2022-12-29T00:33:56;10.80;;;6.22;;
64826;SDS011;51265;53.972;12.286;2022-12-29T00:36:41;14.18;;;6.70;;
64826;SDS011;51265;53.972;12.286;2022-12-29T00:39:10;10.10;;;5.82;;
64826;SDS011;51265;53.972;12.286;2022-12-29T00:42:05;14.07;;;6.43;;
64826;SDS011;51265;53.972;12.286;2022-12-29T00:44:51;11.63;;;6.82;;
64826;SDS011;51265;53.972;12.286;2022-12-29T00:47:17;14.20;;;6.95;;
64826;SDS011;51265;53.972;12.286;2022-12-29T00:49:43;11.60;;;6.68;;
64826;SDS011;51265;53.972;12.286;2022-12-29T00:52:10;12.07;;;6.78;;
64826;SDS011;51265;53.972;12.286;2022-12-29T00:54:38;10.30;;;6.28;;
64826;SDS011;51265;53.972;12.286;2022-12-29T00:57:07;9.55;;;6.53;;
64826;SDS011;51265;53.972;12.286;2022-12-29T00:59:35;10.95;;;6.30;;
64826;SDS011;51265;53.972;12.286;2022-12-29T01:02:03;10.60;;;6.40;;
64826;SDS011;51265;53.972;12.286;2022-12-29T01:04:29;10.95;;;6.32;;
64826;SDS011;51265;53.972;12.286;2022-12-29T01:06:55;11.20;;;6.97;;
64826;SDS011;51265;53.972;12.286;2022-12-29T01:16:34;11.63;;;6.18;;
64826;SDS011;51265;53.972;12.286;2022-12-29T01:19:02;13.35;;;7.10;;
64826;SDS011;51265;53.972;12.286;2022-12-29T01:21:29;10.60;;;6.55;;
64826;SDS011;51265;53.972;12.286;2022-12-29T01:23:56;22.13;;;7.20;;
64826;SDS011;51265;53.972;12.286;2022-12-29T01:26:22;10.05;;;6.97;;
64826;SDS011;51265;53.972;12.286;2022-12-29T01:28:51;9.75;;;6.38;;
64826;SDS011;51265;53.972;12.286;2022-12-29T01:31:17;13.02;;;6.82;;
64826;SDS011;51265;53.972;12.286;2022-12-29T01:33:45;14.60;;;7.47;;
64826;SDS011;51265;53.972;12.286;2022-12-29T01:36:13;12.55;;;7.03;;
64826;SDS011;51265;53.972;12.286;2022-12-29T01:38:41;13.73;;;7.25;;
64826;SDS011;51265;53.972;12.286;2022-12-29T01:41:09;11.00;;;6.53;;
64826;SDS011;51265;53.972;12.286;2022-12-29T01:43:41;12.60;;;6.72;;
64826;SDS011;51265;53.972;12.286;2022-12-29T01:46:25;12.60;;;7.40;;
64826;SDS011;51265;53.972;12.286;2022-12-29T01:48:54;12.43;;;6.75;;
64826;SDS011;51265;53.972;12.286;2022-12-29T01:51:25;10.53;;;7.00;;
64826;SDS011;51265;53.972;12.286;2022-12-29T01:53:56;14.75;;;7.57;;
64826;SDS011;51265;53.972;12.286;2022-12-29T01:56:27;11.23;;;6.78;;
64826;SDS011;51265;53.972;12.286;2022-12-29T01:58:55;11.07;;;6.75;;
64826;SDS011;51265;53.972;12.286;2022-12-29T02:01:30;8.70;;;6.43;;
64826;SDS011;51265;53.972;12.286;2022-12-29T02:03:56;12.90;;;6.88;;
64826;SDS011;51265;53.972;12.286;2022-12-29T02:06:26;11.80;;;6.78;;
64826;SDS011;51265;53.972;12.286;2022-12-29T02:08:57;10.20;;;6.78;;
64826;SDS011;51265;53.972;12.286;2022-12-29T02:11:24;11.90;;;6.95;;
64826;SDS011;51265;53.972;12.286;2022-12-29T02:13:52;12.93;;;6.32;;
64826;SDS011;51265;53.972;12.286;2022-12-29T02:16:34;13.07;;;6.63;;
64826;SDS011;51265;53.972;12.286;2022-12-29T02:19:22;14.13;;;7.35;;
64826;SDS011;51265;53.972;12.286;2022-12-29T02:30:43;12.55;;;6.97;;
64826;SDS011;51265;53.972;12.286;2022-12-29T02:33:49;12.32;;;6.53;;
64826;SDS011;51265;53.972;12.286;2022-12-29T02:41:32;8.63;;;5.97;;
64826;SDS011;51265;53.972;12.286;2022-12-29T02:46:44;9.82;;;6.40;;
64826;SDS011;51265;53.972;12.286;2022-12-29T02:49:33;9.80;;;5.90;;
64826;SDS011;51265;53.972;12.286;2022-12-29T02:52:09;11.63;;;6.20;;
64826;SDS011;51265;53.972;12.286;2022-12-29T02:54:48;10.00;;;6.18;;
64826;SDS011;51265;53.972;12.286;2022-12-29T02:57:27;10.27;;;6.32;;
64826;SDS011;51265;53.972;12.286;2022-12-29T02:59:56;10.98;;;5.93;;
64826;SDS011;51265;53.972;12.286;2022-12-29T03:11:02;11.68;;;6.00;;
64826;SDS011;51265;53.972;12.286;2022-12-29T03:13:44;9.52;;;5.60;;
64826;SDS011;51265;53.972;12.286;2022-12-29T03:16:44;10.60;;;5.60;;
64826;SDS011;51265;53.972;12.286;2022-12-29T03:22:02;13.98;;;5.80;;
64826;SDS011;51265;53.972;12.286;2022-12-29T03:24:58;8.07;;;5.50;;
64826;SDS011;51265;53.972;12.286;2022-12-29T03:27:30;7.72;;;5.30;;
64826;SDS011;51265;53.972;12.286;2022-12-29T03:30:01;7.88;;;4.90;;
64826;SDS011;51265;53.972;12.286;2022-12-29T03:32:32;8.68;;;5.00;;
64826;SDS011;51265;53.972;12.286;2022-12-29T03:35:03;9.38;;;5.70;;
64826;SDS011;51265;53.972;12.286;2022-12-29T03:37:35;7.40;;;4.68;;
64826;SDS011;51265;53.972;12.286;2022-12-29T03:40:05;14.00;;;5.32;;
64826;SDS011;51265;53.972;12.286;2022-12-29T03:42:34;9.75;;;5.05;;
64826;SDS011;51265;53.972;12.286;2022-12-29T03:45:03;10.93;;;4.45;;
64826;SDS011;51265;53.972;12.286;2022-12-29T03:47:30;7.20;;;4.57;;
64826;SDS011;51265;53.972;12.286;2022-12-29T03:49:56;8.00;;;4.80;;
64826;SDS011;51265;53.972;12.286;2022-12-29T03:52:22;8.23;;;4.60;;
64826;SDS011;51265;53.972;12.286;2022-12-29T03:54:52;7.25;;;4.45;;
64826;SDS011;51265;53.972;12.286;2022-12-29T03:57:19;8.48;;;4.60;;
64826;SDS011;51265;53.972;12.286;2022-12-29T03:59:58;10.32;;;5.45;;
64826;SDS011;51265;53.972;12.286;2022-12-29T04:02:24;6.90;;;4.03;;
64826;SDS011;51265;53.972;12.286;2022-12-29T04:04:52;7.80;;;4.75;;
64826;SDS011;51265;53.972;12.286;2022-12-29T04:07:18;10.05;;;4.45;;
64826;SDS011;51265;53.972;12.286;2022-12-29T04:09:45;9.05;;;4.43;;
64826;SDS011;51265;53.972;12.286;2022-12-29T04:12:17;7.65;;;4.40;;
64826;SDS011;51265;53.972;12.286;2022-12-29T04:14:43;7.25;;;4.05;;
64826;SDS011;51265;53.972;12.286;2022-12-29T04:17:09;6.43;;;3.85;;
64826;SDS011;51265;53.972;12.286;2022-12-29T04:19:38;8.65;;;4.60;;
64826;SDS011;51265;53.972;12.286;2022-12-29T04:22:04;6.55;;;4.03;;
64826;SDS011;51265;53.972;12.286;2022-12-29T04:24:32;8.75;;;4.22;;
64826;SDS011;51265;53.972;12.286;2022-12-29T04:26:58;8.05;;;4.47;;
64826;SDS011;51265;53.972;12.286;2022-12-29T04:29:43;8.07;;;4.10;;
64826;SDS011;51265;53.972;12.286;2022-12-29T04:32:24;5.97;;;4.00;;
64826;SDS011;51265;53.972;12.286;2022-12-29T04:34:53;6.05;;;4.00;;
64826;SDS011;51265;53.972;12.286;2022-12-29T04:37:19;9.35;;;4.10;;
64826;SDS011;51265;53.972;12.286;2022-12-29T04:39:46;6.03;;;3.75;;
64826;SDS011;51265;53.972;12.286;2022-12-29T04:42:12;7.65;;;4.07;;
64826;SDS011;51265;53.972;12.286;2022-12-29T04:44:39;8.07;;;4.00;;
64826;SDS011;51265;53.972;12.286;2022-12-29T04:47:14;6.55;;;3.95;;
64826;SDS011;51265;53.972;12.286;2022-12-29T04:49:59;6.28;;;4.07;;
64826;SDS011;51265;53.972;12.286;2022-12-29T04:52:48;7.45;;;3.97;;
64826;SDS011;51265;53.972;12.286;2022-12-29T04:55:14;7.07;;;4.35;;
64826;SDS011;51265;53.972;12.286;2022-12-29T04:57:41;8.60;;;3.80;;
64826;SDS011;51265;53.972;12.286;2022-12-29T05:00:11;7.53;;;4.50;;
64826;SDS011;51265;53.972;12.286;2022-12-29T05:02:38;6.82;;;4.00;;
64826;SDS011;51265;53.972;12.286;2022-12-29T05:05:05;8.05;;;4.25;;
64826;SDS011;51265;53.972;12.286;2022-12-29T05:07:33;4.88;;;3.72;;
64826;SDS011;51265;53.972;12.286;2022-12-29T05:10:00;7.93;;;4.05;;
64826;SDS011;51265;53.972;12.286;2022-12-29T05:12:31;6.90;;;3.92;;
64826;SDS011;51265;53.972;12.286;2022-12-29T05:15:01;8.48;;;4.10;;
64826;SDS011;51265;53.972;12.286;2022-12-29T05:17:29;4.13;;;3.45;;
64826;SDS011;51265;53.972;12.286;2022-12-29T05:19:56;7.43;;;3.70;;
64826;SDS011;51265;53.972;12.286;2022-12-29T05:22:22;7.25;;;3.70;;
64826;SDS011;51265;53.972;12.286;2022-12-29T05:24:50;6.03;;;3.50;;
64826;SDS011;51265;53.972;12.286;2022-12-29T05:27:16;6.22;;;3.10;;
64826;SDS011;51265;53.972;12.286;2022-12-29T05:30:02;8.55;;;3.35;;
64826;SDS011;51265;53.972;12.286;2022-12-29T05:32:29;6.90;;;3.20;;
64826;SDS011;51265;53.972;12.286;2022-12-29T05:34:56;5.65;;;2.97;;
64826;SDS011;51265;53.972;12.286;2022-12-29T05:37:24;5.75;;;3.00;;
64826;SDS011;51265;53.972;12.286;2022-12-29T05:39:50;8.27;;;3.10;;
64826;SDS011;51265;53.972;12.286;2022-12-29T05:42:17;4.70;;;2.55;;
64826;SDS011;51265;53.972;12.286;2022-12-29T05:44:50;4.00;;;2.65;;
64826;SDS011;51265;53.972;12.286;2022-12-29T05:47:38;6.43;;;2.70;;
64826;SDS011;51265;53.972;12.286;2022-12-29T05:50:24;4.10;;;2.70;;
64826;SDS011;51265;53.972;12.286;2022-12-29T05:53:08;4.15;;;2.30;;
64826;SDS011;51265;53.972;12.286;2022-12-29T05:55:36;6.07;;;2.47;;
64826;SDS011;51265;53.972;12.286;2022-12-29T05:58:02;6.63;;;2.60;;
64826;SDS011;51265;53.972;12.286;2022-12-29T06:00:29;5.32;;;2.60;;
64826;SDS011;51265;53.972;12.286;2022-12-29T06:02:55;8.73;;;3.67;;
64826;SDS011;51265;53.972;12.286;2022-12-29T06:05:22;4.78;;;2.58;;
64826;SDS011;51265;53.972;12.286;2022-12-29T06:07:48;3.05;;;2.17;;
64826;SDS011;51265;53.972;12.286;2022-12-29T06:10:16;7.05;;;2.38;;
64826;SDS011;51265;53.972;12.286;2022-12-29T06:12:49;8.05;;;2.70;;
64826;SDS011;51265;53.972;12.286;2022-12-29T06:15:15;3.40;;;2.17;;
64826;SDS011;51265;53.972;12.286;2022-12-29T06:17:43;3.28;;;1.95;;
64826;SDS011;51265;53.972;12.286;2022-12-29T06:20:09;3.10;;;2.10;;
64826;SDS011;51265;53.972;12.286;2022-12-29T06:22:37;6.72;;;2.00;;
64826;SDS011;51265;53.972;12.286;2022-12-29T06:25:05;3.15;;;2.30;;
64826;SDS011;51265;53.972;12.286;2022-12-29T06:27:38;3.40;;;2.28;;
64826;SDS011;51265;53.972;12.286;2022-12-29T06:30:05;4.03;;;2.13;;
64826;SDS011;51265;53.972;12.286;2022-12-29T06:32:32;3.30;;;2.10;;
64826;SDS011;51265;53.972;12.286;2022-12-29T06:35:04;3.53;;;2.10;;
64826;SDS011;51265;53.972;12.286;2022-12-29T06:37:34;6.07;;;2.15;;
64826;SDS011;51265;53.972;12.286;2022-12-29T06:40:00;5.35;;;2.67;;
64826;SDS011;51265;53.972;12.286;2022-12-29T06:42:37;6.50;;;2.50;;
64826;SDS011;51265;53.972;12.286;2022-12-29T06:45:43;5.75;;;2.53;;
64826;SDS011;51265;53.972;12.286;2022-12-29T06:48:09;5.35;;;2.50;;
64826;SDS011;51265;53.972;12.286;2022-12-29T06:50:35;5.20;;;2.50;;
64826;SDS011;51265;53.972;12.286;2022-12-29T06:53:02;6.78;;;3.00;;
64826;SDS011;51265;53.972;12.286;2022-12-29T06:55:28;4.45;;;2.67;;
64826;SDS011;51265;53.972;12.286;2022-12-29T06:57:55;5.55;;;2.60;;
64826;SDS011;51265;53.972;12.286;2022-12-29T07:00:23;4.38;;;2.78;;
64826;SDS011;51265;53.972;12.286;2022-12-29T07:02:50;3.88;;;2.67;;
64826;SDS011;51265;53.972;12.286;2022-12-29T07:05:17;4.40;;;3.00;;
64826;SDS011;51265;53.972;12.286;2022-12-29T07:12:02;5.32;;;2.63;;
64826;SDS011;51265;53.972;12.286;2022-12-29T07:14:29;5.43;;;2.90;;
64826;SDS011;51265;53.972;12.286;2022-12-29T07:16:55;7.38;;;2.90;;
64826;SDS011;51265;53.972;12.286;2022-12-29T07:19:21;9.70;;;2.78;;
64826;SDS011;51265;53.972;12.286;2022-12-29T07:21:47;6.43;;;2.78;;
64826;SDS011;51265;53.972;12.286;2022-12-29T07:24:14;6.03;;;2.60;;
64826;SDS011;51265;53.972;12.286;2022-12-29T07:26:40;4.68;;;2.78;;
64826;SDS011;51265;53.972;12.286;2022-12-29T07:29:07;4.18;;;2.40;;
64826;SDS011;51265;53.972;12.286;2022-12-29T07:31:48;2.83;;;2.33;;
64826;SDS011;51265;53.972;12.286;2022-12-29T07:34:14;4.35;;;2.88;;
64826;SDS011;51265;53.972;12.286;2022-12-29T07:36:40;6.68;;;2.88;;
64826;SDS011;51265;53.972;12.286;2022-12-29T07:39:06;3.70;;;2.30;;
64826;SDS011;51265;53.972;12.286;2022-12-29T07:41:33;4.32;;;2.40;;
64826;SDS011;51265;53.972;12.286;2022-12-29T07:44:01;3.42;;;2.45;;
64826;SDS011;51265;53.972;12.286;2022-12-29T07:46:55;5.47;;;2.05;;
64826;SDS011;51265;53.972;12.286;2022-12-29T07:49:21;4.30;;;2.38;;
64826;SDS011;51265;53.972;12.286;2022-12-29T07:51:47;5.30;;;2.35;;
64826;SDS011;51265;53.972;12.286;2022-12-29T07:54:13;4.70;;;2.08;;
64826;SDS011;51265;53.972;12.286;2022-12-29T07:56:40;3.40;;;2.20;;
64826;SDS011;51265;53.972;12.286;2022-12-29T07:59:06;3.53;;;2.17;;
64826;SDS011;51265;53.972;12.286;2022-12-29T08:01:32;5.82;;;2.30;;
64826;SDS011;51265;53.972;12.286;2022-12-29T08:03:58;4.40;;;1.98;;
64826;SDS011;51265;53.972;12.286;2022-12-29T08:06:24;6.47;;;2.42;;
64826;SDS011;51265;53.972;12.286;2022-12-29T08:08:51;3.60;;;2.60;;
64826;SDS011;51265;53.972;12.286;2022-12-29T08:11:17;6.50;;;2.63;;
64826;SDS011;51265;53.972;12.286;2022-12-29T08:13:43;3.58;;;2.10;;
64826;SDS011;51265;53.972;12.286;2022-12-29T08:16:09;5.70;;;2.30;;
64826;SDS011;51265;53.972;12.286;2022-12-29T08:18:35;3.92;;;2.20;;
64826;SDS011;51265;53.972;12.286;2022-12-29T08:21:02;7.45;;;2.40;;
64826;SDS011;51265;53.972;12.286;2022-12-29T08:23:29;4.90;;;1.88;;
64826;SDS011;51265;53.972;12.286;2022-12-29T08:25:56;3.53;;;2.13;;
64826;SDS011;51265;53.972;12.286;2022-12-29T08:28:23;4.65;;;1.98;;
64826;SDS011;51265;53.972;12.286;2022-12-29T08:30:50;3.58;;;1.70;;
64826;SDS011;51265;53.972;12.286;2022-12-29T08:33:16;3.85;;;1.92;;
64826;SDS011;51265;53.972;12.286;2022-12-29T08:35:43;4.00;;;1.92;;
64826;SDS011;51265;53.972;12.286;2022-12-29T08:38:09;4.85;;;1.60;;
64826;SDS011;51265;53.972;12.286;2022-12-29T08:40:37;3.95;;;1.83;;
64826;SDS011;51265;53.972;12.286;2022-12-29T08:43:03;4.13;;;1.80;;
64826;SDS011;51265;53.972;12.286;2022-12-29T08:45:29;5.38;;;2.08;;
64826;SDS011;51265;53.972;12.286;2022-12-29T08:47:55;4.35;;;1.85;;
64826;SDS011;51265;53.972;12.286;2022-12-29T08:50:21;6.15;;;1.60;;
64826;SDS011;51265;53.972;12.286;2022-12-29T08:52:48;3.83;;;2.00;;
64826;SDS011;51265;53.972;12.286;2022-12-29T08:55:14;2.28;;;1.58;;
64826;SDS011;51265;53.972;12.286;2022-12-29T08:57:40;3.17;;;2.05;;
64826;SDS011;51265;53.972;12.286;2022-12-29T09:00:14;5.20;;;1.98;;
64826;SDS011;51265;53.972;12.286;2022-12-29T09:02:41;5.18;;;1.90;;
64826;SDS011;51265;53.972;12.286;2022-12-29T09:05:07;8.45;;;2.00;;
64826;SDS011;51265;53.972;12.286;2022-12-29T09:07:34;4.93;;;1.67;;
64826;SDS011;51265;53.972;12.286;2022-12-29T09:10:00;3.95;;;1.67;;
64826;SDS011;51265;53.972;12.286;2022-12-29T09:12:26;4.18;;;2.25;;
64826;SDS011;51265;53.972;12.286;2022-12-29T09:14:53;2.85;;;1.58;;
64826;SDS011;51265;53.972;12.286;2022-12-29T09:17:19;4.32;;;1.48;;
64826;SDS011;51265;53.972;12.286;2022-12-29T09:20:07;6.47;;;2.13;;
64826;SDS011;51265;53.972;12.286;2022-12-29T09:22:34;3.65;;;1.85;;
64826;SDS011;51265;53.972;12.286;2022-12-29T09:25:02;5.03;;;1.70;;
64826;SDS011;51265;53.972;12.286;2022-12-29T09:27:28;3.33;;;1.30;;
64826;SDS011;51265;53.972;12.286;2022-12-29T09:29:56;6.35;;;1.80;;
64826;SDS011;51265;53.972;12.286;2022-12-29T09:32:22;5.90;;;1.40;;
64826;SDS011;51265;53.972;12.286;2022-12-29T09:34:48;6.43;;;1.80;;
64826;SDS011;51265;53.972;12.286;2022-12-29T09:37:14;4.15;;;1.60;;
64826;SDS011;51265;53.972;12.286;2022-12-29T09:39:40;3.90;;;1.45;;
64826;SDS011;51265;53.972;12.286;2022-12-29T09:47:22;5.28;;;1.45;;
64826;SDS011;51265;53.972;12.286;2022-12-29T09:49:54;3.58;;;1.50;;
64826;SDS011;51265;53.972;12.286;2022-12-29T09:52:37;2.88;;;1.27;;
64826;SDS011;51265;53.972;12.286;2022-12-29T09:55:12;3.03;;;1.30;;
64826;SDS011;51265;53.972;12.286;2022-12-29T10:00:33;5.53;;;1.55;;
64826;SDS011;51265;53.972;12.286;2022-12-29T10:03:13;2.53;;;1.20;;
64826;SDS011;51265;53.972;12.286;2022-12-29T10:06:00;3.22;;;1.17;;
64826;SDS011;51265;53.972;12.286;2022-12-29T10:08:47;3.25;;;1.13;;
64826;SDS011;51265;53.972;12.286;2022-12-29T10:14:13;3.92;;;1.10;;
64826;SDS011;51265;53.972;12.286;2022-12-29T10:19:34;1.70;;;1.07;;
64826;SDS011;51265;53.972;12.286;2022-12-29T10:24:55;2.47;;;0.80;;
64826;SDS011;51265;53.972;12.286;2022-12-29T10:27:22;2.40;;;0.93;;
64826;SDS011;51265;53.972;12.286;2022-12-29T10:29:52;1.73;;;0.80;;
64826;SDS011;51265;53.972;12.286;2022-12-29T10:32:27;0.80;;;0.60;;
64826;SDS011;51265;53.972;12.286;2022-12-29T10:34:58;5.32;;;0.93;;
64826;SDS011;51265;53.972;12.286;2022-12-29T10:40:11;4.13;;;0.55;;
64826;SDS011;51265;53.972;12.286;2022-12-29T10:42:43;1.13;;;0.52;;
64826;SDS011;51265;53.972;12.286;2022-12-29T10:45:14;2.58;;;0.60;;
64826;SDS011;51265;53.972;12.286;2022-12-29T10:50:28;2.53;;;0.60;;
64826;SDS011;51265;53.972;12.286;2022-12-29T10:53:01;2.25;;;0.50;;
64826;SDS011;51265;53.972;12.286;2022-12-29T10:55:32;1.90;;;0.50;;
64826;SDS011;51265;53.972;12.286;2022-12-29T10:58:04;1.05;;;0.40;;
64826;SDS011;51265;53.972;12.286;2022-12-29T11:00:32;1.20;;;0.52;;
64826;SDS011;51265;53.972;12.286;2022-12-29T11:08:38;1.95;;;0.40;;
64826;SDS011;51265;53.972;12.286;2022-12-29T11:11:11;0.80;;;0.50;;
64826;SDS011;51265;53.972;12.286;2022-12-29T11:13:48;2.83;;;0.55;;
64826;SDS011;51265;53.972;12.286;2022-12-29T11:16:26;4.10;;;0.50;;
64826;SDS011;51265;53.972;12.286;2022-12-29T11:18:56;3.42;;;0.45;;
64826;SDS011;51265;53.972;12.286;2022-12-29T11:21:34;2.20;;;0.68;;
64826;SDS011;51265;53.972;12.286;2022-12-29T11:24:17;3.35;;;0.40;;
64826;SDS011;51265;53.972;12.286;2022-12-29T11:26:46;2.35;;;0.57;;
64826;SDS011;51265;53.972;12.286;2022-12-29T11:29:24;3.20;;;0.50;;
64826;SDS011;51265;53.972;12.286;2022-12-29T11:31:57;4.55;;;0.40;;
64826;SDS011;51265;53.972;12.286;2022-12-29T11:34:26;3.80;;;0.68;;
64826;SDS011;51265;53.972;12.286;2022-12-29T11:37:01;5.75;;;0.68;;
64826;SDS011;51265;53.972;12.286;2022-12-29T11:39:52;6.95;;;1.00;;
64826;SDS011;51265;53.972;12.286;2022-12-29T11:42:22;3.40;;;0.50;;
64826;SDS011;51265;53.972;12.286;2022-12-29T11:45:03;2.65;;;0.75;;
64826;SDS011;51265;53.972;12.286;2022-12-29T11:47:32;2.35;;;0.60;;
64826;SDS011;51265;53.972;12.286;2022-12-29T11:50:00;3.33;;;0.60;;
64826;SDS011;51265;53.972;12.286;2022-12-29T11:52:31;4.70;;;0.88;;
64826;SDS011;51265;53.972;12.286;2022-12-29T11:55:02;3.10;;;0.88;;
64826;SDS011;51265;53.972;12.286;2022-12-29T11:57:32;2.75;;;0.50;;
64826;SDS011;51265;53.972;12.286;2022-12-29T12:00:02;3.83;;;0.63;;
64826;SDS011;51265;53.972;12.286;2022-12-29T12:05:33;4.28;;;1.02;;
64826;SDS011;51265;53.972;12.286;2022-12-29T12:08:09;1.90;;;0.40;;
64826;SDS011;51265;53.972;12.286;2022-12-29T12:10:39;0.82;;;0.43;;
64826;SDS011;51265;53.972;12.286;2022-12-29T12:13:18;4.15;;;0.50;;
64826;SDS011;51265;53.972;12.286;2022-12-29T12:16:12;7.07;;;0.50;;
64826;SDS011;51265;53.972;12.286;2022-12-29T12:18:51;2.97;;;0.95;;
64826;SDS011;51265;53.972;12.286;2022-12-29T12:26:53;7.82;;;0.60;;
64826;SDS011;51265;53.972;12.286;2022-12-29T12:29:25;6.03;;;0.70;;
64826;SDS011;51265;53.972;12.286;2022-12-29T12:35:15;3.97;;;0.90;;
64826;SDS011;51265;53.972;12.286;2022-12-29T12:43:35;4.47;;;0.90;;
64826;SDS011;51265;53.972;12.286;2022-12-29T12:46:14;3.30;;;0.70;;
64826;SDS011;51265;53.972;12.286;2022-12-29T13:00:27;3.53;;;0.85;;
64826;SDS011;51265;53.972;12.286;2022-12-29T13:03:12;5.50;;;1.00;;
64826;SDS011;51265;53.972;12.286;2022-12-29T13:17:25;3.50;;;0.80;;
64826;SDS011;51265;53.972;12.286;2022-12-29T13:20:23;9.45;;;1.27;;
64826;SDS011;51265;53.972;12.286;2022-12-29T13:33:57;8.38;;;0.93;;
64826;SDS011;51265;53.972;12.286;2022-12-29T13:36:33;1.58;;;0.50;;
64826;SDS011;51265;53.972;12.286;2022-12-29T13:41:44;2.67;;;0.50;;
64826;SDS011;51265;53.972;12.286;2022-12-29T13:44:18;4.93;;;0.73;;
64826;SDS011;51265;53.972;12.286;2022-12-29T13:46:51;4.07;;;0.90;;
64826;SDS011;51265;53.972;12.286;2022-12-29T13:49:21;4.47;;;0.85;;
64826;SDS011;51265;53.972;12.286;2022-12-29T13:51:51;3.60;;;0.63;;
64826;SDS011;51265;53.972;12.286;2022-12-29T13:54:24;5.85;;;0.80;;
64826;SDS011;51265;53.972;12.286;2022-12-29T13:57:06;4.00;;;1.00;;
64826;SDS011;51265;53.972;12.286;2022-12-29T14:07:44;7.57;;;0.80;;
64826;SDS011;51265;53.972;12.286;2022-12-29T14:15:45;3.47;;;0.90;;
64826;SDS011;51265;53.972;12.286;2022-12-29T14:18:18;3.20;;;0.63;;
64826;SDS011;51265;53.972;12.286;2022-12-29T14:23:44;2.90;;;0.90;;
64826;SDS011;51265;53.972;12.286;2022-12-29T14:29:16;3.78;;;0.93;;
64826;SDS011;51265;53.972;12.286;2022-12-29T14:37:34;5.95;;;1.10;;
64826;SDS011;51265;53.972;12.286;2022-12-29T14:40:06;4.80;;;0.90;;
64826;SDS011;51265;53.972;12.286;2022-12-29T14:42:44;2.83;;;0.75;;
64826;SDS011;51265;53.972;12.286;2022-12-29T14:47:44;4.93;;;0.75;;
64826;SDS011;51265;53.972;12.286;2022-12-29T14:50:13;4.63;;;0.93;;
64826;SDS011;51265;53.972;12.286;2022-12-29T14:58:31;4.95;;;0.82;;
64826;SDS011;51265;53.972;12.286;2022-12-29T15:01:27;6.60;;;0.70;;
64826;SDS011;51265;53.972;12.286;2022-12-29T15:04:05;8.73;;;1.20;;
64826;SDS011;51265;53.972;12.286;2022-12-29T15:06:41;3.22;;;0.90;;
64826;SDS011;51265;53.972;12.286;2022-12-29T15:09:13;5.20;;;0.70;;
64826;SDS011;51265;53.972;12.286;2022-12-29T15:11:51;4.35;;;1.00;;
64826;SDS011;51265;53.972;12.286;2022-12-29T15:14:27;3.00;;;0.90;;
64826;SDS011;51265;53.972;12.286;2022-12-29T15:16:56;3.85;;;0.90;;
64826;SDS011;51265;53.972;12.286;2022-12-29T15:19:23;6.70;;;1.02;;
64826;SDS011;51265;53.972;12.286;2022-12-29T15:21:50;3.33;;;0.57;;
64826;SDS011;51265;53.972;12.286;2022-12-29T15:24:18;4.50;;;0.77;;
64826;SDS011;51265;53.972;12.286;2022-12-29T15:26:45;5.72;;;0.98;;
64826;SDS011;51265;53.972;12.286;2022-12-29T15:29:36;3.63;;;0.85;;
64826;SDS011;51265;53.972;12.286;2022-12-29T15:34:56;4.22;;;1.10;;
64826;SDS011;51265;53.972;12.286;2022-12-29T15:37:28;3.47;;;0.80;;
64826;SDS011;51265;53.972;12.286;2022-12-29T15:39:59;4.10;;;0.82;;
64826;SDS011;51265;53.972;12.286;2022-12-29T15:45:03;1.42;;;0.43;;
64826;SDS011;51265;53.972;12.286;2022-12-29T15:47:30;7.32;;;0.60;;
64826;SDS011;51265;53.972;12.286;2022-12-29T15:50:00;3.97;;;0.77;;
64826;SDS011;51265;53.972;12.286;2022-12-29T15:52:30;4.15;;;0.82;;
64826;SDS011;51265;53.972;12.286;2022-12-29T15:54:59;4.53;;;1.23;;
64826;SDS011;51265;53.972;12.286;2022-12-29T15:57:28;6.15;;;0.95;;
64826;SDS011;51265;53.972;12.286;2022-12-29T15:59:58;14.70;;;1.65;;
64826;SDS011;51265;53.972;12.286;2022-12-29T16:02:25;6.15;;;1.15;;
64826;SDS011;51265;53.972;12.286;2022-12-29T16:04:52;3.70;;;0.93;;
64826;SDS011;51265;53.972;12.286;2022-12-29T16:09:57;5.50;;;0.90;;
64826;SDS011;51265;53.972;12.286;2022-12-29T16:12:35;2.63;;;0.70;;
64826;SDS011;51265;53.972;12.286;2022-12-29T16:15:03;3.65;;;0.77;;
64826;SDS011;51265;53.972;12.286;2022-12-29T16:17:33;3.92;;;0.50;;
64826;SDS011;51265;53.972;12.286;2022-12-29T16:20:22;2.17;;;0.60;;
64826;SDS011;51265;53.972;12.286;2022-12-29T16:22:55;4.75;;;0.80;;
64826;SDS011;51265;53.972;12.286;2022-12-29T16:25:30;4.78;;;0.80;;
64826;SDS011;51265;53.972;12.286;2022-12-29T16:28:00;4.30;;;0.60;;
64826;SDS011;51265;53.972;12.286;2022-12-29T16:30:29;3.38;;;0.80;;
64826;SDS011;51265;53.972;12.286;2022-12-29T16:32:58;3.08;;;0.70;;
64826;SDS011;51265;53.972;12.286;2022-12-29T16:35:27;2.75;;;0.63;;
64826;SDS011;51265;53.972;12.286;2022-12-29T16:38:15;3.78;;;0.70;;
64826;SDS011;51265;53.972;12.286;2022-12-29T16:40:53;1.95;;;0.77;;
64826;SDS011;51265;53.972;12.286;2022-12-29T16:43:40;3.05;;;0.68;;
64826;SDS011;51265;53.972;12.286;2022-12-29T16:48:49;3.08;;;0.73;;
64826;SDS011;51265;53.972;12.286;2022-12-29T16:51:21;3.05;;;0.85;;
64826;SDS011;51265;53.972;12.286;2022-12-29T16:53:53;3.75;;;0.85;;
64826;SDS011;51265;53.972;12.286;2022-12-29T16:56:22;2.90;;;0.63;;
64826;SDS011;51265;53.972;12.286;2022-12-29T17:01:31;3.40;;;0.70;;
64826;SDS011;51265;53.972;12.286;2022-12-29T17:04:01;3.50;;;0.80;;
64826;SDS011;51265;53.972;12.286;2022-12-29T17:06:32;3.95;;;0.90;;
64826;SDS011;51265;53.972;12.286;2022-12-29T17:08:58;4.05;;;1.15;;
64826;SDS011;51265;53.972;12.286;2022-12-29T17:11:28;4.63;;;1.10;;
64826;SDS011;51265;53.972;12.286;2022-12-29T17:16:49;7.57;;;0.93;;
64826;SDS011;51265;53.972;12.286;2022-12-29T17:19:19;4.80;;;0.90;;
64826;SDS011;51265;53.972;12.286;2022-12-29T17:21:50;9.50;;;1.33;;
64826;SDS011;51265;53.972;12.286;2022-12-29T17:24:17;9.70;;;1.48;;
64826;SDS011;51265;53.972;12.286;2022-12-29T17:26:47;7.55;;;1.17;;
64826;SDS011;51265;53.972;12.286;2022-12-29T17:29:17;2.63;;;0.82;;
64826;SDS011;51265;53.972;12.286;2022-12-29T17:31:57;9.07;;;1.42;;
64826;SDS011;51265;53.972;12.286;2022-12-29T17:34:24;4.93;;;1.20;;
64826;SDS011;51265;53.972;12.286;2022-12-29T17:36:50;4.05;;;0.77;;
64826;SDS011;51265;53.972;12.286;2022-12-29T17:39:17;10.18;;;1.20;;
64826;SDS011;51265;53.972;12.286;2022-12-29T17:41:43;7.18;;;1.00;;
64826;SDS011;51265;53.972;12.286;2022-12-29T17:44:13;8.30;;;1.15;;
64826;SDS011;51265;53.972;12.286;2022-12-29T17:46:42;3.40;;;0.88;;
64826;SDS011;51265;53.972;12.286;2022-12-29T17:49:10;7.60;;;1.15;;